Terminal Aerodrome Forecast
Issued by NWS

Home | Current Version | Previous Version | Text Only | Print | Product List | Glossary On
Versions: 1 2 3 4 5 6 7 8 9 10 11 12 13 14 15 16 17 18 19
214
FTUS42 KTAE 052320
TAFECP
TAF
KECP 052320Z 0600/0624 15009KT 5SM RA VCTS OVC007CB
      TEMPO 0600/0603 19008G18KT +RA OVC005
     FM060500 19006KT 3SM -RA BR OVC005
     FM061000 19012KT 4SM SHRA OVC007
     FM061400 26012G18KT P6SM BKN020=

USA.gov is the U.S. government's official web portal to all federal, state and local government web resources and services.